createdAt,value
2018-05-18T00:01:28.021Z,44.07
2018-05-18T00:03:57.131Z,43.43
2018-05-18T00:06:24.771Z,42.57
2018-05-18T00:08:54.440Z,40.00
2018-05-18T00:11:22.792Z,43.30
2018-05-18T00:13:50.210Z,42.17
2018-05-18T00:16:17.661Z,44.30
2018-05-18T00:18:48.274Z,44.70
2018-05-18T00:21:15.651Z,48.60
2018-05-18T00:23:43.332Z,43.77
2018-05-18T00:26:10.890Z,44.43
2018-05-18T00:28:39.043Z,41.90
2018-05-18T00:31:08.721Z,48.60
2018-05-18T00:33:38.241Z,45.77
2018-05-18T00:36:05.570Z,50.70
2018-05-18T00:38:33.900Z,46.27
2018-05-18T00:41:01.251Z,44.03
2018-05-18T00:43:29.366Z,42.83
2018-05-18T00:45:58.424Z,42.53
2018-05-18T00:48:25.810Z,41.77
2018-05-18T00:50:53.190Z,40.93
2018-05-18T00:53:20.810Z,39.70
2018-05-18T00:55:48.160Z,42.17
2018-05-18T00:58:16.571Z,42.63
2018-05-18T01:00:45.041Z,36.73
2018-05-18T01:03:13.409Z,40.33
2018-05-18T01:05:42.955Z,33.80
2018-05-18T01:08:11.330Z,34.17
2018-05-18T01:10:38.881Z,31.83
2018-05-18T01:13:07.790Z,36.73
2018-05-18T01:15:36.401Z,33.43
2018-05-18T01:18:05.742Z,32.13
2018-05-18T01:20:39.285Z,34.77
2018-05-18T01:23:06.811Z,41.63
2018-05-18T01:25:38.200Z,43.87
2018-05-18T01:28:06.045Z,48.37
2018-05-18T01:30:33.454Z,49.97
2018-05-18T01:33:00.810Z,48.00
2018-05-18T01:35:28.371Z,43.73
2018-05-18T01:37:55.681Z,43.03
2018-05-18T01:40:23.151Z,41.57
2018-05-18T01:42:51.622Z,40.77
2018-05-18T01:45:18.941Z,36.63
2018-05-18T01:47:50.569Z,35.13
2018-05-18T01:50:18.740Z,35.37
2018-05-18T01:52:46.143Z,35.17
2018-05-18T01:55:15.470Z,41.50
2018-05-18T01:57:42.940Z,38.47
2018-05-18T02:00:10.342Z,38.67
2018-05-18T02:02:38.452Z,45.37
2018-05-18T02:05:05.866Z,45.37
2018-05-18T02:07:33.230Z,42.83
2018-05-18T02:10:00.709Z,47.97
2018-05-18T02:12:28.160Z,46.67
2018-05-18T02:14:55.561Z,44.50
2018-05-18T02:17:23.081Z,43.97
2018-05-18T02:19:50.510Z,44.80
2018-05-18T02:22:17.980Z,44.20
2018-05-18T02:24:45.401Z,42.77
2018-05-18T02:27:12.892Z,40.80
2018-05-18T02:29:40.080Z,39.10
2018-05-18T02:32:07.783Z,40.30
2018-05-18T02:34:35.236Z,40.30
2018-05-18T02:37:03.148Z,42.93
2018-05-18T02:39:30.752Z,46.23
2018-05-18T02:41:58.163Z,41.37
2018-05-18T02:44:25.711Z,41.87
2018-05-18T02:46:53.741Z,47.67
2018-05-18T02:49:21.242Z,41.83
2018-05-18T02:51:48.710Z,43.50
2018-05-18T02:54:16.070Z,45.70
2018-05-18T02:56:44.322Z,36.60
2018-05-18T02:59:11.790Z,39.30
2018-05-18T03:01:39.281Z,34.60
2018-05-18T03:04:07.252Z,38.17
2018-05-18T03:06:34.700Z,35.13
2018-05-18T03:09:02.444Z,34.73
2018-05-18T03:11:30.010Z,43.03
2018-05-18T03:13:57.500Z,35.20
2018-05-18T03:16:24.920Z,36.33
2018-05-18T03:18:52.430Z,40.10
2018-05-18T03:21:20.501Z,41.87
2018-05-18T03:23:47.790Z,42.20
2018-05-18T03:26:15.219Z,39.20
2018-05-18T03:28:42.486Z,44.60
2018-05-18T03:31:09.975Z,44.53
2018-05-18T03:33:37.280Z,40.43
2018-05-18T03:36:06.090Z,40.23
2018-05-18T03:38:33.470Z,39.83
2018-05-18T03:41:02.362Z,38.73
2018-05-18T03:43:30.231Z,43.13
2018-05-18T03:46:01.012Z,45.93
2018-05-18T03:48:29.039Z,44.90
2018-05-18T03:50:56.491Z,42.17
2018-05-18T03:53:24.080Z,47.33
2018-05-18T03:55:55.100Z,40.43
2018-05-18T03:58:23.308Z,36.43
2018-05-18T04:00:50.587Z,40.17
2018-05-18T04:03:35.992Z,34.80
2018-05-18T04:06:21.460Z,42.23
2018-05-18T04:08:53.931Z,40.53
2018-05-18T04:11:21.466Z,45.20
2018-05-18T04:13:49.290Z,40.70
2018-05-18T04:16:16.690Z,40.13
2018-05-18T04:18:45.171Z,39.77
2018-05-18T04:21:12.410Z,42.90
2018-05-18T04:23:41.150Z,41.03
2018-05-18T04:26:08.641Z,41.13
2018-05-18T04:28:38.712Z,39.70
2018-05-18T04:31:06.100Z,38.87
2018-05-18T04:33:33.412Z,39.33
2018-05-18T04:36:00.770Z,36.93
2018-05-18T04:38:29.271Z,40.10
2018-05-18T04:40:56.540Z,39.67
2018-05-18T04:43:23.917Z,36.97
2018-05-18T04:45:51.310Z,39.93
2018-05-18T04:48:18.621Z,34.60
2018-05-18T04:50:45.970Z,37.63
2018-05-18T04:53:14.390Z,35.73
2018-05-18T04:55:43.041Z,42.60
2018-05-18T04:58:14.491Z,38.70
2018-05-18T05:00:41.780Z,36.00
2018-05-18T05:03:09.119Z,39.03
2018-05-18T05:05:36.471Z,36.60
2018-05-18T05:08:03.870Z,41.07
2018-05-18T05:10:31.130Z,35.50
2018-05-18T05:12:59.550Z,38.00
2018-05-18T05:15:26.832Z,38.93
2018-05-18T05:17:56.920Z,40.13
2018-05-18T05:20:25.301Z,43.37
2018-05-18T05:22:54.012Z,37.53
2018-05-18T05:25:24.690Z,36.53
2018-05-18T05:27:55.421Z,38.53
2018-05-18T05:30:22.861Z,38.30
2018-05-18T05:32:50.150Z,44.37
2018-05-18T05:35:19.240Z,36.40
2018-05-18T05:37:47.422Z,38.53
2018-05-18T05:40:15.700Z,39.67
2018-05-18T05:42:43.085Z,40.70
2018-05-18T05:45:10.340Z,39.57
2018-05-18T05:47:37.693Z,44.10
2018-05-18T05:50:05.272Z,42.63
2018-05-18T05:52:40.830Z,38.40
2018-05-18T05:55:08.103Z,39.77
2018-05-18T05:57:36.500Z,39.83
2018-05-18T06:00:04.120Z,38.20
2018-05-18T06:02:31.671Z,37.83
2018-05-18T06:05:00.850Z,40.60
2018-05-18T06:07:29.442Z,39.17
2018-05-18T06:09:56.921Z,41.70
2018-05-18T06:12:24.410Z,40.17
2018-05-18T06:14:53.980Z,42.07
2018-05-18T06:17:21.481Z,42.77
2018-05-18T06:19:48.771Z,46.47
2018-05-18T06:22:16.220Z,44.07
2018-05-18T06:24:43.641Z,52.27
2018-05-18T06:27:10.935Z,54.53
2018-05-18T06:29:39.591Z,48.23
2018-05-18T06:32:06.880Z,48.67
2018-05-18T06:34:34.184Z,47.87
2018-05-18T06:37:01.541Z,49.77
2018-05-18T06:39:28.899Z,41.37
2018-05-18T06:41:58.104Z,44.00
2018-05-18T06:44:25.351Z,44.40
2018-05-18T06:46:52.710Z,46.37
2018-05-18T06:49:20.941Z,42.20
2018-05-18T06:51:48.620Z,42.47
2018-05-18T06:54:16.859Z,43.90
2018-05-18T06:56:44.309Z,47.03
2018-05-18T06:59:12.589Z,40.47
2018-05-18T07:01:40.448Z,44.97
2018-05-18T07:04:07.578Z,42.20
2018-05-18T07:06:34.913Z,45.90
2018-05-18T07:09:03.691Z,46.50
2018-05-18T07:11:32.170Z,46.13
2018-05-18T07:14:00.159Z,45.30
2018-05-18T07:16:30.883Z,42.93
2018-05-18T07:18:58.439Z,48.17
2018-05-18T07:21:25.699Z,43.53
2018-05-18T07:23:54.228Z,45.47
2018-05-18T07:26:24.339Z,43.47
2018-05-18T07:28:53.961Z,46.87
2018-05-18T07:31:24.288Z,44.40
2018-05-18T07:33:53.883Z,52.53
2018-05-18T07:36:21.370Z,45.60
2018-05-18T07:38:48.815Z,46.63
2018-05-18T07:41:16.418Z,48.07
2018-05-18T07:43:43.699Z,47.23
2018-05-18T07:46:11.969Z,44.57
2018-05-18T07:48:39.290Z,46.40
2018-05-18T07:51:07.618Z,43.13
2018-05-18T07:53:35.009Z,44.73
2018-05-18T07:56:03.521Z,42.97
2018-05-18T07:58:32.709Z,45.60
2018-05-18T08:01:00.031Z,41.27
2018-05-18T08:03:29.429Z,42.17
2018-05-18T08:05:57.121Z,40.73
2018-05-18T08:08:26.300Z,42.13
2018-05-18T08:10:53.580Z,42.57
2018-05-18T08:13:22.148Z,39.83
2018-05-18T08:15:51.150Z,46.13
2018-05-18T08:18:18.451Z,42.30
2018-05-18T08:20:45.789Z,40.87
2018-05-18T08:23:13.190Z,47.40
2018-05-18T08:25:40.480Z,44.60
2018-05-18T08:28:10.201Z,37.90
2018-05-18T08:30:56.350Z,34.50
2018-05-18T08:33:24.840Z,36.20
2018-05-18T08:35:53.932Z,37.50
2018-05-18T08:38:21.321Z,35.17
2018-05-18T08:40:48.741Z,42.67
2018-05-18T08:43:19.626Z,41.73
2018-05-18T08:45:49.871Z,41.60
2018-05-18T08:48:17.250Z,37.97
2018-05-18T08:50:47.770Z,39.60
2018-05-18T08:53:17.111Z,38.17
2018-05-18T08:55:45.630Z,41.40
2018-05-18T08:58:13.210Z,36.43
2018-05-18T09:00:42.339Z,42.60
2018-05-18T09:03:09.850Z,38.33
2018-05-18T09:05:38.122Z,38.83
2018-05-18T09:08:07.740Z,39.47
2018-05-18T09:10:35.890Z,39.33
2018-05-18T09:13:06.580Z,39.93
2018-05-18T09:15:33.832Z,36.77
2018-05-18T09:18:01.191Z,32.67
2018-05-18T09:20:28.501Z,32.03
2018-05-18T09:22:56.670Z,32.40
2018-05-18T09:25:25.941Z,36.40
2018-05-18T09:27:53.484Z,34.77
2018-05-18T09:30:21.991Z,35.43
2018-05-18T09:32:50.094Z,36.33
2018-05-18T09:35:17.482Z,34.23
2018-05-18T09:37:45.986Z,37.67
2018-05-18T09:40:14.832Z,30.93
2018-05-18T09:42:43.401Z,33.23
2018-05-18T09:45:12.965Z,28.50
2018-05-18T09:47:41.000Z,26.33
2018-05-18T09:50:08.372Z,29.83
2018-05-18T09:52:36.300Z,34.17
2018-05-18T09:55:05.365Z,25.67
2018-05-18T09:57:32.840Z,28.90
2018-05-18T10:00:02.193Z,27.30
2018-05-18T10:02:30.971Z,31.37
2018-05-18T10:04:58.250Z,27.33
2018-05-18T10:07:25.842Z,28.13
2018-05-18T10:09:55.270Z,29.00
2018-05-18T10:12:22.550Z,26.17
2018-05-18T10:14:50.191Z,25.33
2018-05-18T10:17:17.721Z,24.70
2018-05-18T10:19:45.732Z,25.33
2018-05-18T10:22:13.343Z,26.67
2018-05-18T10:24:41.509Z,23.20
2018-05-18T10:27:09.151Z,26.10
2018-05-18T10:29:36.724Z,25.30
2018-05-18T10:32:04.181Z,24.60
2018-05-18T10:34:31.640Z,21.87
2018-05-18T10:36:59.079Z,25.03
2018-05-18T10:39:26.941Z,25.27
2018-05-18T10:41:54.480Z,21.50
2018-05-18T10:44:22.031Z,25.57
2018-05-18T10:46:49.450Z,24.57
2018-05-18T10:49:17.382Z,26.27
2018-05-18T10:51:44.990Z,24.20
2018-05-18T10:54:12.500Z,25.50
2018-05-18T10:56:40.070Z,26.43
2018-05-18T10:59:07.610Z,27.30
2018-05-18T11:01:35.163Z,22.27
2018-05-18T11:04:02.670Z,25.77
2018-05-18T11:06:30.280Z,26.47
2018-05-18T11:08:57.821Z,22.20
2018-05-18T11:11:25.490Z,27.87
2018-05-18T11:13:53.084Z,25.83
2018-05-18T11:16:20.770Z,25.57
2018-05-18T11:18:49.000Z,28.57
2018-05-18T11:21:16.591Z,28.03
2018-05-18T11:23:43.860Z,22.17
2018-05-18T11:26:11.639Z,25.57
2018-05-18T11:28:39.129Z,23.77
2018-05-18T11:31:07.111Z,19.37
2018-05-18T11:33:34.590Z,27.43
2018-05-18T11:36:02.440Z,24.30
2018-05-18T11:38:29.950Z,21.03
2018-05-18T11:40:57.912Z,20.83
2018-05-18T11:43:25.471Z,27.97
2018-05-18T11:46:00.919Z,22.63
2018-05-18T11:48:28.792Z,23.93
2018-05-18T11:50:56.420Z,20.77
2018-05-18T11:53:23.493Z,21.73
2018-05-18T11:55:50.961Z,20.47
2018-05-18T11:58:18.015Z,17.60
2018-05-18T12:00:45.639Z,19.23
2018-05-18T12:03:13.841Z,19.67
2018-05-18T12:05:41.363Z,18.07
2018-05-18T12:08:08.931Z,17.73
2018-05-18T12:10:37.131Z,19.83
2018-05-18T12:13:04.591Z,20.50
2018-05-18T12:15:32.181Z,16.57
2018-05-18T12:17:59.522Z,19.33
2018-05-18T12:20:27.099Z,19.30
2018-05-18T12:22:55.000Z,19.17
2018-05-18T12:25:23.079Z,19.33
2018-05-18T12:27:51.241Z,20.80
2018-05-18T12:30:19.420Z,23.10
2018-05-18T12:32:47.500Z,17.87
2018-05-18T12:35:15.641Z,19.10
2018-05-18T12:37:43.063Z,22.40
2018-05-18T12:40:10.525Z,19.93
2018-05-18T12:42:37.980Z,21.43
2018-05-18T12:45:05.513Z,15.57
2018-05-18T12:47:33.801Z,18.43
2018-05-18T12:50:02.082Z,19.17
2018-05-18T12:52:29.642Z,21.67
2018-05-18T12:54:57.163Z,25.13
2018-05-18T12:57:24.991Z,19.70
2018-05-18T12:59:52.279Z,20.87
2018-05-18T13:02:20.334Z,21.87
2018-05-18T13:04:48.032Z,17.90
2018-05-18T13:07:15.482Z,20.73
2018-05-18T13:09:43.861Z,21.90
2018-05-18T13:12:11.315Z,26.37
2018-05-18T13:14:39.642Z,21.00
2018-05-18T13:17:06.771Z,23.10
2018-05-18T13:19:34.251Z,18.40
2018-05-18T13:22:02.353Z,17.23
2018-05-18T13:24:29.781Z,18.17
2018-05-18T13:26:57.591Z,19.90
2018-05-18T13:29:25.001Z,15.13
2018-05-18T13:31:53.481Z,18.63
2018-05-18T13:34:21.538Z,21.40
2018-05-18T13:36:49.170Z,15.23
2018-05-18T13:39:18.571Z,17.23
2018-05-18T13:41:46.082Z,17.57
2018-05-18T13:44:13.606Z,13.73
2018-05-18T13:46:41.032Z,20.63
2018-05-18T13:49:09.272Z,16.10
2018-05-18T13:51:38.899Z,16.27
2018-05-18T13:54:06.551Z,15.37
2018-05-18T13:56:33.991Z,18.73
2018-05-18T13:59:01.471Z,15.67
2018-05-18T14:01:29.002Z,18.07
2018-05-18T14:03:56.402Z,14.17
2018-05-18T14:06:24.440Z,18.23
2018-05-18T14:08:53.830Z,15.17
2018-05-18T14:11:21.012Z,14.23
2018-05-18T14:13:48.541Z,18.47
2018-05-18T14:16:16.041Z,5.57
2018-05-18T14:18:45.760Z,6.53
2018-05-18T14:21:15.740Z,4.53
2018-05-18T14:23:44.630Z,6.67
2018-05-18T14:26:15.252Z,7.60
2018-05-18T14:28:42.731Z,6.67
2018-05-18T14:31:12.540Z,13.47
2018-05-18T14:33:41.390Z,8.73
2018-05-18T14:36:09.030Z,6.00
2018-05-18T14:38:36.340Z,5.93
2018-05-18T14:41:04.091Z,7.50
2018-05-18T14:43:33.340Z,5.33
2018-05-18T14:48:36.870Z,6.63
2018-05-18T14:51:04.268Z,6.20
2018-05-18T14:53:33.361Z,6.27
2018-05-18T14:56:01.876Z,9.07
2018-05-18T14:58:29.257Z,13.20
2018-05-18T15:00:56.872Z,10.93
2018-05-18T15:03:24.441Z,9.33
2018-05-18T15:05:51.931Z,10.90
2018-05-18T15:08:20.461Z,11.33
2018-05-18T15:10:47.992Z,10.20
2018-05-18T15:13:15.515Z,9.13
2018-05-18T15:15:43.091Z,14.23
2018-05-18T15:18:10.850Z,7.60
2018-05-18T15:20:38.225Z,4.93
2018-05-18T15:23:05.730Z,6.87
2018-05-18T15:25:33.981Z,5.93
2018-05-18T15:28:01.672Z,6.90
2018-05-18T15:30:29.941Z,6.13
2018-05-18T15:32:57.054Z,5.20
2018-05-18T15:35:24.201Z,6.17
2018-05-18T15:37:51.713Z,7.30
2018-05-18T15:40:19.361Z,6.17
2018-05-18T15:42:47.536Z,6.63
2018-05-18T15:45:15.061Z,7.40
2018-05-18T15:47:42.885Z,7.27
2018-05-18T15:50:11.135Z,9.63
2018-05-18T15:52:39.010Z,8.07
2018-05-18T15:55:06.631Z,8.23
2018-05-18T15:57:34.160Z,7.83
2018-05-18T16:00:01.623Z,42.77
2018-05-18T16:02:29.120Z,7.57
2018-05-18T16:04:57.252Z,25.20
2018-05-18T16:07:24.642Z,9.77
2018-05-18T16:09:52.331Z,9.03
2018-05-18T16:12:19.662Z,161.90
2018-05-18T16:14:47.930Z,32.43
2018-05-18T16:17:15.581Z,7.37
2018-05-18T16:19:43.051Z,8.47
2018-05-18T16:22:10.681Z,7.97
2018-05-18T16:24:38.823Z,10.63
2018-05-18T16:27:06.321Z,7.13
2018-05-18T16:29:34.100Z,7.83
2018-05-18T16:32:01.741Z,11.73
2018-05-18T16:34:29.101Z,6.93
2018-05-18T16:36:56.434Z,10.27
2018-05-18T16:39:31.054Z,10.63
2018-05-18T16:41:58.482Z,9.70
2018-05-18T16:44:25.842Z,10.07
2018-05-18T16:46:52.969Z,7.97
2018-05-18T16:49:20.622Z,8.60
2018-05-18T16:51:48.630Z,6.70
2018-05-18T16:54:16.282Z,8.07
2018-05-18T16:56:43.550Z,6.97
2018-05-18T16:59:10.940Z,7.53
2018-05-18T17:01:38.301Z,14.37
2018-05-18T17:04:05.922Z,7.60
2018-05-18T17:06:33.456Z,7.77
2018-05-18T17:09:00.961Z,8.23
2018-05-18T17:11:29.931Z,9.27
2018-05-18T17:13:57.220Z,8.30
2018-05-18T17:16:25.740Z,11.63
2018-05-18T17:18:53.372Z,31.03
2018-05-18T17:21:20.912Z,11.73
2018-05-18T17:23:48.291Z,10.50
2018-05-18T17:26:15.740Z,26.57
2018-05-18T17:28:44.161Z,34.63
2018-05-18T17:31:11.920Z,28.50
2018-05-18T17:33:39.281Z,22.23
2018-05-18T17:36:07.833Z,22.70
2018-05-18T17:38:35.340Z,16.20
2018-05-18T17:41:02.940Z,9.53
2018-05-18T17:43:30.439Z,7.13
2018-05-18T17:45:58.353Z,7.77
2018-05-18T17:48:27.241Z,9.23
2018-05-18T17:50:54.610Z,28.07
2018-05-18T17:53:22.120Z,18.27
2018-05-18T17:55:49.280Z,9.50
2018-05-18T17:58:17.142Z,8.43
2018-05-18T18:00:44.671Z,10.23
2018-05-18T18:03:11.954Z,75.70
2018-05-18T18:05:39.691Z,58.07
2018-05-18T18:08:07.323Z,18.57
2018-05-18T18:10:34.660Z,11.50
2018-05-18T18:13:02.161Z,19.97
2018-05-18T18:15:29.772Z,10.40
2018-05-18T18:17:57.402Z,10.60
2018-05-18T18:20:24.952Z,13.00
2018-05-18T18:22:52.441Z,13.10
2018-05-18T18:25:20.021Z,11.70
2018-05-18T18:27:48.591Z,11.83
2018-05-18T18:30:16.111Z,19.73
2018-05-18T18:32:43.560Z,74.83
2018-05-18T18:35:11.060Z,55.37
2018-05-18T18:37:38.961Z,61.00
2018-05-18T18:40:07.320Z,28.27
2018-05-18T18:42:35.646Z,27.13
2018-05-18T18:45:03.293Z,37.77
2018-05-18T18:47:30.793Z,37.30
2018-05-18T18:49:58.300Z,26.40
2018-05-18T18:52:26.041Z,20.10
2018-05-18T18:54:53.519Z,44.27
2018-05-18T18:57:21.200Z,11.43
2018-05-18T18:59:48.820Z,29.93
2018-05-18T19:02:17.456Z,11.10
2018-05-18T19:04:45.840Z,21.90
2018-05-18T19:07:13.362Z,30.00
2018-05-18T19:09:41.050Z,39.03
2018-05-18T19:12:08.401Z,31.77
2018-05-18T19:14:36.130Z,19.53
2018-05-18T19:17:04.500Z,29.07
2018-05-18T19:19:32.711Z,32.13
2018-05-18T19:22:01.410Z,21.90
2018-05-18T19:24:29.033Z,14.33
2018-05-18T19:26:59.220Z,23.90
2018-05-18T19:29:26.561Z,22.43
2018-05-18T19:31:53.910Z,17.87
2018-05-18T19:34:21.420Z,30.40
2018-05-18T19:36:49.751Z,21.47
2018-05-18T19:39:17.391Z,11.17
2018-05-18T19:41:44.761Z,13.73
2018-05-18T19:44:12.287Z,11.27
2018-05-18T19:46:41.701Z,11.03
2018-05-18T19:49:09.010Z,13.57
2018-05-18T19:51:37.820Z,15.27
2018-05-18T19:54:05.901Z,14.63
2018-05-18T19:56:34.380Z,15.03
2018-05-18T19:59:03.211Z,17.63
2018-05-18T20:01:30.511Z,16.43
2018-05-18T20:03:58.121Z,17.93
2018-05-18T20:06:42.430Z,20.40
2018-05-18T20:09:09.751Z,15.93
2018-05-18T20:11:37.050Z,18.23
2018-05-18T20:14:05.671Z,15.50
2018-05-18T20:16:32.940Z,16.80
2018-05-18T20:19:02.131Z,14.00
2018-05-18T20:21:30.470Z,16.93
2018-05-18T20:24:00.304Z,15.63
2018-05-18T20:26:29.515Z,15.87
2018-05-18T20:28:57.941Z,17.30
2018-05-18T20:31:27.901Z,15.07
2018-05-18T20:33:56.940Z,14.77
2018-05-18T20:36:25.472Z,14.83
2018-05-18T20:38:52.960Z,16.40
2018-05-18T20:41:21.170Z,18.20
2018-05-18T20:43:49.950Z,13.87
2018-05-18T20:46:17.250Z,14.80
2018-05-18T20:48:44.870Z,15.70
2018-05-18T20:51:15.330Z,17.93
2018-05-18T20:53:42.860Z,18.23
2018-05-18T20:56:11.091Z,18.30
2018-05-18T20:58:39.471Z,16.53
2018-05-18T21:01:09.741Z,14.70
2018-05-18T21:03:38.455Z,14.63
2018-05-18T21:06:05.762Z,16.27
2018-05-18T21:08:34.054Z,16.10
2018-05-18T21:11:01.542Z,16.57
2018-05-18T21:13:28.841Z,17.63
2018-05-18T21:15:56.211Z,16.63
2018-05-18T21:18:24.651Z,18.70
2018-05-18T21:20:53.072Z,18.43
2018-05-18T21:23:20.480Z,18.40
2018-05-18T21:25:47.951Z,18.50
2018-05-18T21:28:15.291Z,18.40
2018-05-18T21:30:42.652Z,18.50
2018-05-18T21:33:10.291Z,15.77
2018-05-18T21:35:37.601Z,16.40
2018-05-18T21:38:04.949Z,15.57
2018-05-18T21:40:32.381Z,17.80
2018-05-18T21:43:01.822Z,17.03
2018-05-18T21:45:30.310Z,15.60
2018-05-18T21:47:57.722Z,16.73
2018-05-18T21:50:25.041Z,17.67
2018-05-18T21:52:52.362Z,18.23
2018-05-18T21:55:21.471Z,17.53
2018-05-18T21:57:48.961Z,16.93
2018-05-18T22:00:16.261Z,18.77
2018-05-18T22:02:44.441Z,17.83
2018-05-18T22:05:11.752Z,17.07
2018-05-18T22:07:39.051Z,16.30
2018-05-18T22:10:06.550Z,18.27
2018-05-18T22:12:33.920Z,19.40
2018-05-18T22:15:01.204Z,19.27
2018-05-18T22:17:29.970Z,19.83
2018-05-18T22:19:57.470Z,18.90
2018-05-18T22:22:26.840Z,19.27
2018-05-18T22:24:54.210Z,19.50
2018-05-18T22:27:21.750Z,20.63
2018-05-18T22:29:49.989Z,20.40
2018-05-18T22:32:18.200Z,22.07
2018-05-18T22:34:45.520Z,20.90
2018-05-18T22:37:12.912Z,20.33
2018-05-18T22:39:40.271Z,22.93
2018-05-18T22:42:07.561Z,21.17
2018-05-18T22:44:34.821Z,20.97
2018-05-18T22:47:04.010Z,20.83
2018-05-18T22:49:32.450Z,19.37
2018-05-18T22:52:00.030Z,18.83
2018-05-18T22:54:29.281Z,18.33
2018-05-18T22:56:57.200Z,19.33
2018-05-18T22:59:25.240Z,19.83
2018-05-18T23:01:52.861Z,18.43
2018-05-18T23:04:20.281Z,20.83
2018-05-18T23:06:47.572Z,19.97
2018-05-18T23:09:14.931Z,20.77
2018-05-18T23:11:46.360Z,21.50
2018-05-18T23:14:13.723Z,21.83
2018-05-18T23:16:40.991Z,24.27
2018-05-18T23:19:09.550Z,24.10
2018-05-18T23:21:36.821Z,24.23
2018-05-18T23:24:04.920Z,22.57
2018-05-18T23:26:32.375Z,21.83
2018-05-18T23:28:59.886Z,22.70
2018-05-18T23:31:30.490Z,21.70
2018-05-18T23:33:57.940Z,24.83
2018-05-18T23:36:28.560Z,24.27
2018-05-18T23:38:56.131Z,23.10
2018-05-18T23:41:23.610Z,26.93
2018-05-18T23:43:53.193Z,25.33
2018-05-18T23:46:20.610Z,24.07
2018-05-18T23:48:48.770Z,25.97
2018-05-18T23:51:15.979Z,23.03
2018-05-18T23:53:44.950Z,23.00
2018-05-18T23:56:13.021Z,24.30
2018-05-18T23:58:40.850Z,24.37
